createdAt,value
2023-04-14T00:01:04.068Z,101015.88
2023-04-14T00:03:33.705Z,101021.16
2023-04-14T00:06:02.096Z,101028.25
2023-04-14T00:08:30.661Z,101022.13
2023-04-14T00:10:59.327Z,101025.66
2023-04-14T00:13:27.968Z,101037.06
2023-04-14T00:15:57.020Z,101031.78
2023-04-14T00:18:25.671Z,101036.22
2023-04-14T00:20:57.777Z,101037.09
2023-04-14T00:23:26.502Z,101035.28
2023-04-14T00:25:54.617Z,101001.91
2023-04-14T00:28:22.797Z,101035.25
2023-04-14T00:30:51.040Z,101047.53
2023-04-14T00:33:19.196Z,101042.41
2023-04-14T00:35:47.629Z,101053.78
2023-04-14T00:38:17.327Z,101053.88
2023-04-14T00:40:45.655Z,101058.38
2023-04-14T00:43:13.856Z,101052.22
2023-04-14T00:45:46.480Z,101062.78
2023-04-14T00:48:15.809Z,101063.66
2023-04-14T00:50:44.475Z,101067.16
2023-04-14T00:53:14.137Z,101072.44
2023-04-14T00:55:44.362Z,101073.31
2023-04-14T00:58:13.006Z,101058.38
2023-04-14T01:00:41.167Z,101081.25
2023-04-14T01:03:09.756Z,101070.72
2023-04-14T01:05:37.996Z,101072.47
2023-04-14T01:08:06.603Z,101068.94
2023-04-14T01:10:42.566Z,101071.59
2023-04-14T01:13:23.558Z,101070.69
2023-04-14T01:15:55.668Z,101068.94
2023-04-14T01:18:30.545Z,101067.16
2023-04-14T01:21:04.516Z,101068.97
2023-04-14T01:23:39.078Z,101073.34
2023-04-14T01:26:30.389Z,101072.47
2023-04-14T01:29:36.257Z,101082.13
2023-04-14T01:32:10.753Z,101086.50
2023-04-14T01:34:47.385Z,101081.25
2023-04-14T01:37:18.277Z,101090.06
2023-04-14T01:39:51.474Z,101033.06
2023-04-14T01:42:24.604Z,101098.84
2023-04-14T01:44:58.546Z,101069.91
2023-04-14T01:47:30.984Z,101112.91
2023-04-14T01:50:02.590Z,101111.16
2023-04-14T01:52:32.935Z,101116.44
2023-04-14T01:55:05.871Z,101123.47
2023-04-14T01:57:37.395Z,101119.97
2023-04-14T02:00:08.768Z,101132.25
2023-04-14T02:02:41.595Z,101135.75
2023-04-14T02:05:11.799Z,101133.13
2023-04-14T02:07:41.724Z,101135.75
2023-04-14T02:10:11.763Z,101137.50
2023-04-14T02:12:43.351Z,101140.16
2023-04-14T02:15:16.184Z,101142.78
2023-04-14T02:17:49.961Z,101146.31
2023-04-14T02:20:18.696Z,101144.56
2023-04-14T02:22:47.159Z,101148.06
2023-04-14T02:25:15.607Z,101144.56
2023-04-14T02:27:50.303Z,101150.69
2023-04-14T02:30:21.816Z,101149.81
2023-04-14T02:32:58.224Z,101156.84
2023-04-14T02:35:30.071Z,101162.97
2023-04-14T02:38:08.427Z,101159.47
2023-04-14T02:40:40.056Z,101169.16
2023-04-14T02:43:13.943Z,101166.50
2023-04-14T02:45:44.055Z,101167.38
2023-04-14T02:48:17.066Z,101170.00
2023-04-14T02:50:48.750Z,101155.06
2023-04-14T02:53:21.970Z,101177.91
2023-04-14T02:55:52.178Z,101176.16
2023-04-14T02:58:21.563Z,101163.84
2023-04-14T03:00:52.126Z,101170.88
2023-04-14T03:03:22.194Z,101174.38
2023-04-14T03:05:50.729Z,101177.00
2023-04-14T03:08:20.608Z,101189.31
2023-04-14T03:10:52.971Z,101183.19
2023-04-14T03:13:23.640Z,101187.56
2023-04-14T03:15:54.157Z,101193.69
2023-04-14T03:18:24.374Z,101199.84
2023-04-14T03:20:55.928Z,101185.81
2023-04-14T03:23:27.014Z,101176.13
2023-04-14T03:25:58.308Z,101202.50
2023-04-14T03:28:29.488Z,101206.00
2023-04-14T03:31:01.410Z,101202.47
2023-04-14T03:33:33.928Z,101212.13
2023-04-14T03:36:03.120Z,101208.63
2023-04-14T03:38:34.567Z,101209.47
2023-04-14T03:41:05.625Z,101206.84
2023-04-14T03:43:36.050Z,101205.97
2023-04-14T03:46:06.378Z,101205.97
2023-04-14T03:48:42.989Z,101209.50
2023-04-14T03:51:14.415Z,101208.66
2023-04-14T03:53:44.540Z,101212.13
2023-04-14T03:56:16.824Z,101228.78
2023-04-14T03:58:49.557Z,101218.25
2023-04-14T04:01:19.552Z,101219.97
2023-04-14T04:03:50.031Z,101226.97
2023-04-14T04:06:19.057Z,101225.22
2023-04-14T04:08:49.190Z,101227.00
2023-04-14T04:11:20.960Z,101226.97
2023-04-14T04:13:50.412Z,101228.72
2023-04-14T04:16:20.571Z,101236.59
2023-04-14T04:18:51.608Z,101239.25
2023-04-14T04:21:21.543Z,101244.56
2023-04-14T04:23:54.688Z,101246.25
2023-04-14T04:26:23.892Z,101255.06
2023-04-14T04:28:53.720Z,101255.94
2023-04-14T04:31:23.985Z,101254.16
2023-04-14T04:33:54.742Z,101253.31
2023-04-14T04:36:23.471Z,101245.34
2023-04-14T04:38:51.987Z,101253.22
2023-04-14T04:41:24.032Z,101265.50
2023-04-14T04:43:52.738Z,101263.75
2023-04-14T04:46:44.340Z,101270.75
2023-04-14T04:49:15.781Z,101267.28
2023-04-14T04:51:44.807Z,101269.97
2023-04-14T04:54:13.481Z,101270.84
2023-04-14T04:56:41.836Z,101283.09
2023-04-14T04:59:11.359Z,101281.28
2023-04-14T05:01:39.720Z,101274.28
2023-04-14T05:04:08.433Z,101276.00
2023-04-14T05:06:38.699Z,101290.03
2023-04-14T05:09:07.582Z,101295.28
2023-04-14T05:11:37.072Z,101298.75
2023-04-14T05:14:05.690Z,101297.00
2023-04-14T05:16:33.930Z,101295.19
2023-04-14T05:19:03.275Z,101286.41
2023-04-14T05:21:31.802Z,101284.69
2023-04-14T05:24:01.706Z,101293.47
2023-04-14T05:26:52.003Z,101275.94
2023-04-14T05:29:21.003Z,101286.50
2023-04-14T05:31:49.909Z,101291.81
2023-04-14T05:34:18.520Z,101279.59
2023-04-14T05:36:48.627Z,101276.13
2023-04-14T05:39:18.450Z,101281.34
2023-04-14T05:41:47.175Z,101288.44
2023-04-14T05:44:16.870Z,101254.97
2023-04-14T05:46:47.064Z,101291.06
2023-04-14T05:49:15.264Z,101293.75
2023-04-14T05:51:45.587Z,101281.50
2023-04-14T05:54:13.832Z,101298.19
2023-04-14T05:56:43.453Z,101300.81
2023-04-14T05:59:11.811Z,101300.81
2023-04-14T06:01:40.394Z,101306.06
2023-04-14T06:04:09.336Z,101299.94
2023-04-14T06:06:38.176Z,101294.72
2023-04-14T06:09:06.369Z,101294.69
2023-04-14T06:11:34.559Z,101285.91
2023-04-14T06:14:05.540Z,101294.69
2023-04-14T06:16:33.859Z,101297.34
2023-04-14T06:19:04.686Z,101295.59
2023-04-14T06:21:32.903Z,101286.81
2023-04-14T06:24:01.626Z,101302.63
2023-04-14T06:26:32.547Z,101288.56
2023-04-14T06:29:07.701Z,101292.09
2023-04-14T06:31:36.255Z,101282.44
2023-04-14T06:34:04.387Z,101299.09
2023-04-14T06:36:33.114Z,101288.53
2023-04-14T06:39:02.532Z,101291.91
2023-04-14T06:41:31.288Z,101300.69
2023-04-14T06:43:59.897Z,101290.16
2023-04-14T06:46:30.305Z,101292.75
2023-04-14T06:48:58.534Z,101291.00
2023-04-14T06:51:27.252Z,101280.34
2023-04-14T06:53:55.676Z,101268.06
2023-04-14T06:56:23.991Z,101304.88
2023-04-14T06:58:52.420Z,101295.28
2023-04-14T07:01:20.944Z,101299.63
2023-04-14T07:03:50.599Z,101291.66
2023-04-14T07:06:20.203Z,101293.34
2023-04-14T07:08:48.388Z,101293.31
2023-04-14T07:11:16.409Z,101303.91
2023-04-14T07:13:44.923Z,101294.97
2023-04-14T07:16:13.412Z,101261.63
2023-04-14T07:18:41.732Z,101294.84
2023-04-14T07:21:12.127Z,101297.66
2023-04-14T07:23:40.495Z,101295.13
2023-04-14T07:26:08.584Z,101286.28
2023-04-14T07:28:37.376Z,101289.63
2023-04-14T07:31:10.076Z,101291.28
2023-04-14T07:33:38.578Z,101307.00
2023-04-14T07:36:08.113Z,101312.22
2023-04-14T07:38:37.894Z,101305.16
2023-04-14T07:41:07.951Z,101310.41
2023-04-14T07:43:36.445Z,101307.59
2023-04-14T07:46:05.782Z,101294.31
2023-04-14T07:48:37.213Z,101307.38
2023-04-14T07:51:07.002Z,101306.41
2023-04-14T07:53:43.190Z,101293.31
2023-04-14T07:56:13.216Z,101293.66
2023-04-14T07:58:41.348Z,101306.06
2023-04-14T08:01:09.842Z,101303.38
2023-04-14T08:03:38.705Z,101302.47
2023-04-14T08:06:11.011Z,101304.91
2023-04-14T08:08:40.992Z,101310.19
2023-04-14T08:11:09.129Z,101312.13
2023-04-14T08:13:38.749Z,101304.28
2023-04-14T08:16:07.151Z,101319.34
2023-04-14T08:18:35.679Z,101312.28
2023-04-14T08:21:03.879Z,101312.13
2023-04-14T08:23:32.287Z,101314.41
2023-04-14T08:26:00.506Z,101313.31
2023-04-14T08:28:29.609Z,101314.09
2023-04-14T08:31:00.058Z,101300.31
2023-04-14T08:33:31.373Z,101307.19
2023-04-14T08:36:00.589Z,101252.78
2023-04-14T08:38:29.594Z,101307.13
2023-04-14T08:41:00.476Z,101306.13
2023-04-14T08:43:28.884Z,101300.06
2023-04-14T08:46:03.427Z,101314.00
2023-04-14T08:48:33.039Z,101314.28
2023-04-14T08:51:08.853Z,101323.28
2023-04-14T08:53:45.366Z,101312.63
2023-04-14T08:56:17.880Z,101307.34
2023-04-14T08:58:47.350Z,101318.28
2023-04-14T09:01:17.485Z,101322.53
2023-04-14T09:03:46.429Z,101305.28
2023-04-14T09:06:15.876Z,101325.56
2023-04-14T09:08:45.030Z,101301.53
2023-04-14T09:11:14.633Z,101303.94
2023-04-14T09:13:45.521Z,101303.00
2023-04-14T09:16:15.507Z,101279.59
2023-04-14T09:18:47.358Z,101300.00
2023-04-14T09:21:29.613Z,101304.69
2023-04-14T09:24:07.969Z,101307.44
2023-04-14T09:26:37.791Z,101310.81
2023-04-14T09:29:06.323Z,101309.34
2023-04-14T09:31:34.943Z,101311.06
2023-04-14T09:34:05.399Z,101281.44
2023-04-14T09:36:33.671Z,101276.59
2023-04-14T09:39:02.620Z,101309.69
2023-04-14T09:41:31.776Z,101311.72
2023-04-14T09:44:10.824Z,101310.03
2023-04-14T09:46:39.002Z,101302.94
2023-04-14T09:49:09.054Z,101307.94
2023-04-14T09:51:51.846Z,101296.66
2023-04-14T09:54:25.840Z,101305.53
2023-04-14T09:56:57.747Z,101307.53
2023-04-14T09:59:34.426Z,101296.94
2023-04-14T10:02:06.584Z,101267.78
2023-04-14T10:04:36.886Z,101302.31
2023-04-14T10:07:08.144Z,101293.63
2023-04-14T10:09:38.638Z,101308.16
2023-04-14T10:12:12.764Z,101307.22
2023-04-14T10:14:41.463Z,101303.78
2023-04-14T10:17:10.101Z,101302.66
2023-04-14T10:19:39.919Z,101314.25
2023-04-14T10:22:08.106Z,101306.84
2023-04-14T10:24:37.084Z,101301.56
2023-04-14T10:27:06.323Z,101311.47
2023-04-14T10:29:36.846Z,101299.00
2023-04-14T10:32:08.549Z,101304.84
2023-04-14T10:34:41.223Z,101303.44
2023-04-14T10:37:15.879Z,101298.47
2023-04-14T10:39:44.221Z,101302.09
2023-04-14T10:42:12.421Z,101306.28
2023-04-14T10:44:40.884Z,101304.34
2023-04-14T10:47:09.419Z,101306.34
2023-04-14T10:49:39.593Z,101307.97
2023-04-14T10:52:28.658Z,101304.66
2023-04-14T10:55:01.278Z,101310.47
2023-04-14T10:57:30.936Z,101310.66
2023-04-14T11:00:00.172Z,101309.88
2023-04-14T11:02:32.842Z,101311.81
2023-04-14T11:05:04.205Z,101314.66
2023-04-14T11:07:33.485Z,101301.38
2023-04-14T11:10:27.364Z,101307.13
2023-04-14T11:13:02.136Z,101298.41
2023-04-14T11:15:50.911Z,101293.94
2023-04-14T11:18:22.924Z,101305.69
2023-04-14T11:20:54.025Z,101299.16
2023-04-14T11:23:28.455Z,101299.75
2023-04-14T11:25:58.813Z,101305.03
2023-04-14T11:28:30.902Z,101298.47
2023-04-14T11:31:00.152Z,101305.78
2023-04-14T11:33:30.606Z,101305.91
2023-04-14T11:35:59.214Z,101307.69
2023-04-14T11:38:28.124Z,101305.69
2023-04-14T11:40:57.868Z,101301.16
2023-04-14T11:43:26.555Z,101309.94
2023-04-14T11:45:54.875Z,101312.81
2023-04-14T11:48:23.046Z,101302.41
2023-04-14T11:50:52.219Z,101312.56
2023-04-14T11:53:21.374Z,101276.78
2023-04-14T11:55:51.074Z,101298.47
2023-04-14T11:58:25.455Z,101309.13
2023-04-14T12:00:56.448Z,101309.69
2023-04-14T12:06:18.215Z,101293.66
2023-04-14T12:08:50.693Z,101308.25
2023-04-14T12:11:18.987Z,101296.25
2023-04-14T12:13:49.118Z,101295.88
2023-04-14T12:16:18.406Z,101300.16
2023-04-14T12:18:46.863Z,101301.28
2023-04-14T12:21:20.146Z,101299.69
2023-04-14T12:23:49.983Z,101300.59
2023-04-14T12:26:18.360Z,101305.78
2023-04-14T12:28:47.314Z,101307.94
2023-04-14T12:31:27.835Z,101313.50
2023-04-14T12:34:02.159Z,101320.81
2023-04-14T12:36:47.971Z,101313.91
2023-04-14T12:39:16.971Z,101306.34
2023-04-14T12:41:45.714Z,101313.69
2023-04-14T12:44:18.584Z,101305.03
2023-04-14T12:46:56.686Z,101306.81
2023-04-14T12:49:36.560Z,101308.22
2023-04-14T12:52:08.045Z,101308.81
2023-04-14T12:54:52.383Z,101303.56
2023-04-14T12:57:35.350Z,101293.25
2023-04-14T13:00:10.548Z,101298.41
2023-04-14T13:02:47.044Z,101307.19
2023-04-14T13:05:21.984Z,101307.63
2023-04-14T13:07:54.200Z,101293.78
2023-04-14T13:10:22.488Z,101295.13
2023-04-14T13:12:50.927Z,101281.63
2023-04-14T13:16:12.931Z,101304.50
2023-04-14T13:18:24.203Z,101262.25
2023-04-14T13:21:04.516Z,101237.06
2023-04-14T13:23:47.768Z,101315.09
2023-04-14T13:26:22.413Z,101308.16
2023-04-14T13:29:01.252Z,101198.16
2023-04-14T13:31:42.885Z,101290.19
2023-04-14T13:34:17.890Z,101294.88
2023-04-14T13:37:00.282Z,101292.47
2023-04-14T13:39:36.004Z,101300.34
2023-04-14T13:42:15.191Z,101285.53
2023-04-14T13:44:50.851Z,101288.19
2023-04-14T13:47:29.300Z,101297.94
2023-04-14T13:50:08.868Z,101296.16
2023-04-14T13:52:42.414Z,101308.50
2023-04-14T13:55:15.780Z,101305.78
2023-04-14T13:57:59.735Z,101308.75
2023-04-14T14:00:33.570Z,101243.03
2023-04-14T14:03:13.706Z,101307.19
2023-04-14T14:05:50.691Z,101319.66
2023-04-14T14:08:24.690Z,101275.56
2023-04-14T14:11:10.342Z,101303.72
2023-04-14T14:13:50.220Z,101199.13
2023-04-14T14:16:35.964Z,101287.84
2023-04-14T14:19:20.853Z,101297.56
2023-04-14T14:22:03.308Z,101289.06
2023-04-14T14:24:37.888Z,101300.53
2023-04-14T14:27:11.192Z,101310.19
2023-04-14T14:29:45.060Z,101311.00
2023-04-14T14:32:21.563Z,101301.41
2023-04-14T14:34:57.638Z,101311.16
2023-04-14T14:37:31.550Z,101298.78
2023-04-14T14:40:13.195Z,101301.47
2023-04-14T14:42:46.580Z,101285.69
2023-04-14T14:45:18.998Z,101293.63
2023-04-14T14:47:59.091Z,101298.97
2023-04-14T14:50:27.428Z,101315.69
2023-04-14T14:52:57.426Z,101318.22
2023-04-14T14:55:25.760Z,101305.84
2023-04-14T14:57:53.923Z,101310.16
2023-04-14T15:00:22.545Z,101309.22
2023-04-14T15:02:51.039Z,101310.31
2023-04-14T15:05:19.728Z,101300.56
2023-04-14T15:07:47.830Z,101300.63
2023-04-14T15:10:17.751Z,101304.13
2023-04-14T15:12:45.980Z,101272.56
2023-04-14T15:15:14.236Z,101307.66
2023-04-14T15:17:42.374Z,101302.38
2023-04-14T15:20:11.900Z,101311.22
2023-04-14T15:22:40.086Z,101305.91
2023-04-14T15:25:10.174Z,101306.75
2023-04-14T15:27:39.793Z,101296.97
2023-04-14T15:30:09.182Z,101298.59
2023-04-14T15:32:37.469Z,101302.22
2023-04-14T15:35:06.152Z,101299.56
2023-04-14T15:37:34.706Z,101290.75
2023-04-14T15:40:02.946Z,101295.19
2023-04-14T15:42:31.123Z,101293.41
2023-04-14T15:45:00.697Z,101288.13
2023-04-14T15:47:28.761Z,101295.13
2023-04-14T15:50:12.997Z,101294.22
2023-04-14T15:52:45.498Z,101294.94
2023-04-14T15:55:14.187Z,101301.25
2023-04-14T15:57:42.417Z,101288.03
2023-04-14T16:00:13.399Z,101292.44
2023-04-14T16:02:42.201Z,101291.56
2023-04-14T16:05:10.973Z,101285.47
2023-04-14T16:07:40.024Z,101275.03
2023-04-14T16:10:09.068Z,101298.66
2023-04-14T16:12:37.777Z,101296.09
2023-04-14T16:15:08.968Z,101296.94
2023-04-14T16:17:38.818Z,101289.78
2023-04-14T16:20:07.741Z,101290.63
2023-04-14T16:22:35.954Z,101293.34
2023-04-14T16:25:04.777Z,101296.91
2023-04-14T16:27:32.892Z,101291.63
2023-04-14T16:30:01.160Z,101289.06
2023-04-14T16:32:29.901Z,101298.78
2023-04-14T16:34:59.748Z,101288.22
2023-04-14T16:37:28.567Z,101253.06
2023-04-14T16:39:58.046Z,101288.19
2023-04-14T16:42:26.954Z,101293.47
2023-04-14T16:44:56.158Z,101281.16
2023-04-14T16:47:24.712Z,101281.16
2023-04-14T16:49:53.044Z,101279.28
2023-04-14T16:52:22.504Z,101277.56
2023-04-14T16:54:50.609Z,101281.16
2023-04-14T16:57:19.014Z,101268.69
2023-04-14T16:59:48.201Z,101268.41
2023-04-14T17:02:16.572Z,101271.91
2023-04-14T17:04:45.264Z,101270.03
2023-04-14T17:07:13.561Z,101287.88
2023-04-14T17:09:43.227Z,101288.13
2023-04-14T17:12:11.483Z,101299.56
2023-04-14T17:14:39.737Z,101286.34
2023-04-14T17:17:08.300Z,101288.13
2023-04-14T17:19:36.464Z,101291.53
2023-04-14T17:22:04.508Z,101287.03
2023-04-14T17:24:32.805Z,101289.84
2023-04-14T17:27:02.509Z,101288.13
2023-04-14T17:29:30.779Z,101282.84
2023-04-14T17:31:59.327Z,101241.34
2023-04-14T17:34:29.352Z,101281.22
2023-04-14T17:36:58.862Z,101277.69
2023-04-14T17:39:28.530Z,101278.47
2023-04-14T17:41:58.095Z,101275.50
2023-04-14T17:44:33.419Z,101282.06
2023-04-14T17:47:03.271Z,101291.75
2023-04-14T17:49:32.542Z,101290.91
2023-04-14T17:52:01.423Z,101295.31
2023-04-14T17:54:30.620Z,101282.97
2023-04-14T17:56:58.661Z,101303.03
2023-04-14T17:59:28.429Z,101302.13
2023-04-14T18:01:56.665Z,101302.13
2023-04-14T18:04:25.621Z,101304.00
2023-04-14T18:06:56.749Z,101303.09
2023-04-14T18:09:24.987Z,101304.09
2023-04-14T18:11:53.302Z,101316.41
2023-04-14T18:14:21.694Z,101316.47
2023-04-14T18:16:51.478Z,101301.47
2023-04-14T18:19:19.663Z,101309.38
2023-04-14T18:21:48.400Z,101311.16
2023-04-14T18:26:47.564Z,101291.78
2023-04-14T18:29:15.864Z,101305.84
2023-04-14T18:31:43.868Z,101312.91
2023-04-14T18:34:14.036Z,101312.88
2023-04-14T18:36:42.632Z,101316.50
2023-04-14T18:39:10.724Z,101309.34
2023-04-14T18:41:39.446Z,101310.22
2023-04-14T18:44:07.748Z,101306.75
2023-04-14T18:46:37.806Z,101316.47
2023-04-14T18:49:06.110Z,101318.25
2023-04-14T18:51:35.704Z,101306.78
2023-04-14T18:54:04.019Z,101314.69
2023-04-14T18:56:32.637Z,101308.63
2023-04-14T18:59:01.000Z,101312.16
2023-04-14T19:01:29.783Z,101311.25
2023-04-14T19:03:58.220Z,101325.34
2023-04-14T19:06:26.717Z,101327.00
2023-04-14T19:08:56.843Z,101328.66
2023-04-14T19:11:25.480Z,101326.03
2023-04-14T19:13:54.272Z,101326.91
2023-04-14T19:16:22.754Z,101322.59
2023-04-14T19:18:50.864Z,101323.56
2023-04-14T19:21:19.117Z,101330.59
2023-04-14T19:23:48.686Z,101330.59
2023-04-14T19:26:19.509Z,101331.38
2023-04-14T19:28:47.782Z,101325.31
2023-04-14T19:31:17.403Z,101330.53
2023-04-14T19:33:45.768Z,101332.22
2023-04-14T19:36:15.111Z,101332.31
2023-04-14T19:38:43.423Z,101334.13
2023-04-14T19:41:12.147Z,101340.28
2023-04-14T19:43:41.789Z,101331.31
2023-04-14T19:46:12.794Z,101337.47
2023-04-14T19:48:41.011Z,101342.84
2023-04-14T19:51:09.384Z,101351.66
2023-04-14T19:53:37.683Z,101349.88
2023-04-14T19:56:07.360Z,101348.06
2023-04-14T19:58:36.560Z,101342.69
2023-04-14T20:01:06.225Z,101348.88
2023-04-14T20:03:34.800Z,101344.50
2023-04-14T20:06:03.336Z,101354.22
2023-04-14T20:08:32.346Z,101341.06
2023-04-14T20:11:00.758Z,101329.75
2023-04-14T20:13:31.398Z,101345.56
2023-04-14T20:16:00.273Z,101346.28
2023-04-14T20:18:30.075Z,101354.28
2023-04-14T20:20:59.081Z,101356.97
2023-04-14T20:23:27.994Z,101348.16
2023-04-14T20:26:02.522Z,101343.81
2023-04-14T20:28:31.531Z,101342.06
2023-04-14T20:30:59.718Z,101351.72
2023-04-14T20:33:29.709Z,101352.59
2023-04-14T20:36:00.069Z,101353.44
2023-04-14T20:38:28.346Z,101349.94
2023-04-14T20:40:56.671Z,101356.91
2023-04-14T20:43:32.632Z,101357.81
2023-04-14T20:46:01.507Z,101362.22
2023-04-14T20:48:32.303Z,101360.53
2023-04-14T20:51:01.846Z,101367.50
2023-04-14T20:53:30.206Z,101370.13
2023-04-14T20:55:58.321Z,101372.78
2023-04-14T20:58:26.574Z,101370.97
2023-04-14T21:00:56.758Z,101374.56
2023-04-14T21:03:25.455Z,101370.97
2023-04-14T21:05:55.471Z,101372.69
2023-04-14T21:08:24.798Z,101369.09
2023-04-14T21:11:15.869Z,101377.91
2023-04-14T21:15:39.724Z,101379.75
2023-04-14T21:16:30.047Z,101370.84
2023-04-14T21:18:58.452Z,101372.75
2023-04-14T21:21:28.048Z,101329.63
2023-04-14T21:23:56.212Z,101375.28
2023-04-14T21:26:24.636Z,101372.75
2023-04-14T21:28:53.053Z,101378.03
2023-04-14T21:31:21.259Z,101383.19
2023-04-14T21:33:49.380Z,101380.63
2023-04-14T21:36:17.457Z,101376.25
2023-04-14T21:38:47.473Z,101388.59
2023-04-14T21:41:15.996Z,101385.03
2023-04-14T21:43:44.114Z,101383.31
2023-04-14T21:46:12.313Z,101386.84
2023-04-14T21:48:40.562Z,101395.63
2023-04-14T21:51:09.091Z,101390.25
2023-04-14T21:53:37.543Z,101388.47
2023-04-14T21:56:10.019Z,101393.84
2023-04-14T21:58:39.560Z,101400.84
2023-04-14T22:01:09.644Z,101407.84
2023-04-14T22:03:40.615Z,101403.41
2023-04-14T22:06:10.096Z,101391.06
2023-04-14T22:08:40.401Z,101400.81
2023-04-14T22:11:10.376Z,101388.53
2023-04-14T22:13:38.602Z,101374.47
2023-04-14T22:16:07.568Z,101407.97
2023-04-14T22:18:37.272Z,101407.84
2023-04-14T22:21:05.773Z,101402.63
2023-04-14T22:23:34.205Z,101411.47
2023-04-14T22:26:02.703Z,101407.97
2023-04-14T22:28:32.165Z,101407.97
2023-04-14T22:31:00.354Z,101400.94
2023-04-14T22:33:28.767Z,101417.69
2023-04-14T22:35:56.952Z,101402.63
2023-04-14T22:38:25.238Z,101412.25
2023-04-14T22:40:53.421Z,101419.28
2023-04-14T22:43:21.634Z,101418.41
2023-04-14T22:45:51.247Z,101422.84
2023-04-14T22:48:19.695Z,101428.97
2023-04-14T22:50:47.749Z,101434.19
2023-04-14T22:53:16.481Z,101423.59
2023-04-14T22:55:45.389Z,101433.41
2023-04-14T22:58:17.080Z,101434.25
2023-04-14T23:00:45.677Z,101436.06
2023-04-14T23:03:15.650Z,101443.16
2023-04-14T23:05:44.834Z,101441.34
2023-04-14T23:08:13.121Z,101433.41
2023-04-14T23:10:41.706Z,101433.41
2023-04-14T23:13:09.929Z,101444.81
2023-04-14T23:15:38.195Z,101445.72
2023-04-14T23:18:06.719Z,101445.72
2023-04-14T23:20:37.037Z,101446.69
2023-04-14T23:23:05.896Z,101444.91
2023-04-14T23:25:34.137Z,101439.63
2023-04-14T23:28:02.430Z,101446.63
2023-04-14T23:30:30.780Z,101448.31
2023-04-14T23:32:58.965Z,101456.25
2023-04-14T23:35:27.075Z,101446.72
2023-04-14T23:38:02.385Z,101452.81
2023-04-14T23:40:30.791Z,101448.41
2023-04-14T23:42:59.300Z,101444.91
2023-04-14T23:45:28.049Z,101446.59
2023-04-14T23:47:56.721Z,101435.09
2023-04-14T23:51:00.510Z,101448.31
2023-04-14T23:53:15.747Z,101409.63
2023-04-14T23:55:44.794Z,101437.81
2023-04-14T23:58:13.131Z,101439.59
